Terminal Aerodrome Forecast
Issued by NWS Flagstaff, AZ

Home | Current Version | Previous Version | Text Only | Print | Product List | Glossary On
Versions: 1 2 3 4 5 6 7 8 9 10 11 12 13 14 15
161
FTUS45 KFGZ 252340
TAFFLG
TAF
KFLG 252340Z 2600/2624 25014G24KT P6SM FEW150 BKN200
     FM260100 23010KT P6SM SCT080 BKN120
     FM261200 22005KT P6SM VCSH SCT030 OVC050
     FM262100 21010G20KT P6SM VCSH OVC030=

USA.gov is the U.S. government's official web portal to all federal, state and local government web resources and services.